createdAt,value
2023-04-11T00:00:04.956Z,10.30
2023-04-11T00:01:04.946Z,10.31
2023-04-11T00:02:05.069Z,10.31
2023-04-11T00:03:05.061Z,10.33
2023-04-11T00:04:05.030Z,10.33
2023-04-11T00:05:05.000Z,10.33
2023-04-11T00:06:04.900Z,10.31
2023-04-11T00:07:04.877Z,10.34
2023-04-11T00:08:04.854Z,10.33
2023-04-11T00:09:04.948Z,10.34
2023-04-11T00:10:04.920Z,10.33
2023-04-11T00:11:04.827Z,10.33
2023-04-11T00:12:04.795Z,10.36
2023-04-11T00:13:04.782Z,10.38
2023-04-11T00:14:04.781Z,10.36
2023-04-11T00:15:04.775Z,10.41
2023-04-11T00:16:04.771Z,10.42
2023-04-11T00:17:04.736Z,10.43
2023-04-11T00:18:04.714Z,10.45
2023-04-11T00:19:04.711Z,10.48
2023-04-11T00:20:04.720Z,10.48
2023-04-11T00:21:04.677Z,10.48
2023-04-11T00:22:04.667Z,10.49
2023-04-11T00:23:04.686Z,10.48
2023-04-11T00:24:04.634Z,10.46
2023-04-11T00:25:04.649Z,10.45
2023-04-11T00:26:04.619Z,10.41
2023-04-11T00:27:04.618Z,10.38
2023-04-11T00:28:04.583Z,10.36
2023-04-11T00:29:04.579Z,10.33
2023-04-11T00:30:04.574Z,10.28
2023-04-11T00:31:04.547Z,10.24
2023-04-11T00:32:04.726Z,10.17
2023-04-11T00:33:04.558Z,10.15
2023-04-11T00:34:04.503Z,10.10
2023-04-11T00:35:04.522Z,10.06
2023-04-11T00:36:04.574Z,10.02
2023-04-11T00:37:04.493Z,9.99
2023-04-11T00:38:04.447Z,9.97
2023-04-11T00:39:04.449Z,9.99
2023-04-11T00:40:04.438Z,9.99
2023-04-11T00:41:04.418Z,10.02
2023-04-11T00:42:04.413Z,10.02
2023-04-11T00:43:04.402Z,9.99
2023-04-11T00:44:04.359Z,9.99
2023-04-11T00:45:04.402Z,10.03
2023-04-11T00:46:04.401Z,10.07
2023-04-11T00:47:04.324Z,10.09
2023-04-11T00:48:04.392Z,10.10
2023-04-11T00:49:04.342Z,10.15
2023-04-11T00:50:04.317Z,10.20
2023-04-11T00:51:04.303Z,10.24
2023-04-11T00:52:04.286Z,10.27
2023-04-11T00:53:04.256Z,10.28
2023-04-11T00:54:04.241Z,10.33
2023-04-11T00:55:04.240Z,10.33
2023-04-11T00:56:04.209Z,10.36
2023-04-11T00:57:04.247Z,10.36
2023-04-11T00:58:04.208Z,10.38
2023-04-11T00:59:04.186Z,10.33
2023-04-11T01:00:04.180Z,10.30
2023-04-11T01:01:04.192Z,10.28
2023-04-11T01:02:04.278Z,10.25
2023-04-11T01:03:04.278Z,10.24
2023-04-11T01:04:04.229Z,10.20
2023-04-11T01:05:04.124Z,10.15
2023-04-11T01:06:04.077Z,10.13
2023-04-11T01:07:04.360Z,10.10
2023-04-11T01:08:04.056Z,10.10
2023-04-11T01:09:04.058Z,10.09
2023-04-11T01:10:04.049Z,10.09
2023-04-11T01:11:04.037Z,10.03
2023-04-11T01:12:04.020Z,10.00
2023-04-11T01:13:04.004Z,9.95
2023-04-11T01:14:04.045Z,9.92
2023-04-11T01:15:03.991Z,9.90
2023-04-11T01:16:03.967Z,9.88
2023-04-11T01:17:04.055Z,9.87
2023-04-11T01:18:04.078Z,9.90
2023-04-11T01:19:03.898Z,9.90
2023-04-11T01:20:03.919Z,9.91
2023-04-11T01:21:03.954Z,9.88
2023-04-11T01:22:03.869Z,9.88
2023-04-11T01:23:03.858Z,9.90
2023-04-11T01:24:03.850Z,9.90
2023-04-11T01:25:03.832Z,9.88
2023-04-11T01:26:03.828Z,9.90
2023-04-11T01:27:03.799Z,9.90
2023-04-11T01:28:03.786Z,9.85
2023-04-11T01:29:03.779Z,9.81
2023-04-11T01:30:03.794Z,9.84
2023-04-11T01:31:03.804Z,9.84
2023-04-11T01:32:03.730Z,9.84
2023-04-11T01:33:03.791Z,9.81
2023-04-11T01:34:03.736Z,9.77
2023-04-11T01:35:03.711Z,9.77
2023-04-11T01:36:03.780Z,9.80
2023-04-11T01:37:03.670Z,9.76
2023-04-11T01:38:03.648Z,9.77
2023-04-11T01:39:03.641Z,9.72
2023-04-11T01:40:03.651Z,9.66
2023-04-11T01:41:03.609Z,9.64
2023-04-11T01:42:03.599Z,9.63
2023-04-11T01:43:03.588Z,9.63
2023-04-11T01:44:03.727Z,9.63
2023-04-11T01:45:03.581Z,9.59
2023-04-11T01:46:03.554Z,9.58
2023-04-11T01:47:03.524Z,9.59
2023-04-11T01:48:03.585Z,9.62
2023-04-11T01:49:03.558Z,9.66
2023-04-11T01:50:03.591Z,9.70
2023-04-11T01:51:03.465Z,9.73
2023-04-11T01:52:03.442Z,9.74
2023-04-11T01:53:03.500Z,9.77
2023-04-11T01:54:03.426Z,9.81
2023-04-11T01:55:03.433Z,9.85
2023-04-11T01:56:03.395Z,9.90
2023-04-11T01:57:03.392Z,9.94
2023-04-11T01:58:03.365Z,9.99
2023-04-11T01:59:03.346Z,10.02
2023-04-11T02:00:03.372Z,10.06
2023-04-11T02:01:03.398Z,10.10
2023-04-11T02:02:03.431Z,10.12
2023-04-11T02:03:03.451Z,10.15
2023-04-11T02:04:03.341Z,10.17
2023-04-11T02:05:03.309Z,10.17
2023-04-11T02:06:03.296Z,10.18
2023-04-11T02:07:03.435Z,10.20
2023-04-11T02:08:03.251Z,10.21
2023-04-11T02:09:03.228Z,10.23
2023-04-11T02:10:03.241Z,10.24
2023-04-11T02:11:03.207Z,10.27
2023-04-11T02:12:03.182Z,10.25
2023-04-11T02:13:03.169Z,10.27
2023-04-11T02:14:03.148Z,10.25
2023-04-11T02:15:03.189Z,10.23
2023-04-11T02:16:03.153Z,10.20
2023-04-11T02:17:03.125Z,10.18
2023-04-11T02:18:03.165Z,10.18
2023-04-11T02:19:03.108Z,10.20
2023-04-11T02:20:03.087Z,10.23
2023-04-11T02:21:03.070Z,10.24
2023-04-11T02:22:03.043Z,10.27
2023-04-11T02:23:03.048Z,10.24
2023-04-11T02:24:03.035Z,10.24
2023-04-11T02:25:03.035Z,10.21
2023-04-11T02:26:03.057Z,10.18
2023-04-11T02:27:03.037Z,10.20
2023-04-11T02:28:03.114Z,10.18
2023-04-11T02:29:03.068Z,10.15
2023-04-11T02:30:03.085Z,10.10
2023-04-11T02:31:03.080Z,10.07
2023-04-11T02:32:03.216Z,10.03
2023-04-11T02:33:03.016Z,10.06
2023-04-11T02:34:02.934Z,10.02
2023-04-11T02:35:03.062Z,10.03
2023-04-11T02:36:03.115Z,10.03
2023-04-11T02:37:03.280Z,10.05
2023-04-11T02:38:02.868Z,10.06
2023-04-11T02:39:02.858Z,10.07
2023-04-11T02:40:02.964Z,10.12
2023-04-11T02:41:03.000Z,10.12
2023-04-11T02:42:02.789Z,10.12
2023-04-11T02:43:02.776Z,10.15
2023-04-11T02:44:02.768Z,10.15
2023-04-11T02:45:02.761Z,10.15
2023-04-11T02:46:12.577Z,10.15
2023-04-11T02:47:03.811Z,10.15
2023-04-11T02:48:02.813Z,10.15
2023-04-11T02:49:02.784Z,10.17
2023-04-11T02:50:02.708Z,10.17
2023-04-11T02:51:02.760Z,10.17
2023-04-11T02:52:02.647Z,10.18
2023-04-11T02:53:02.657Z,10.17
2023-04-11T02:54:02.631Z,10.15
2023-04-11T02:55:02.626Z,10.13
2023-04-11T02:56:02.633Z,10.15
2023-04-11T02:57:02.595Z,10.13
2023-04-11T02:58:02.584Z,10.13
2023-04-11T02:59:02.560Z,10.12
2023-04-11T03:00:02.547Z,10.12
2023-04-11T03:01:02.547Z,10.12
2023-04-11T03:02:02.637Z,10.12
2023-04-11T03:03:02.597Z,10.13
2023-04-11T03:04:02.587Z,10.10
2023-04-11T03:05:02.489Z,10.10
2023-04-11T03:06:02.475Z,10.12
2023-04-11T03:07:02.439Z,10.12
2023-04-11T03:08:02.470Z,10.09
2023-04-11T03:09:02.429Z,10.06
2023-04-11T03:10:02.404Z,10.05
2023-04-11T03:11:02.421Z,10.05
2023-04-11T03:12:02.375Z,10.06
2023-04-11T03:13:02.367Z,10.07
2023-04-11T03:14:02.361Z,10.09
2023-04-11T03:15:02.345Z,10.10
2023-04-11T03:16:02.408Z,10.07
2023-04-11T03:17:02.312Z,10.09
2023-04-11T03:18:02.335Z,10.07
2023-04-11T03:19:02.311Z,10.09
2023-04-11T03:20:02.268Z,10.09
2023-04-11T03:21:02.306Z,10.09
2023-04-11T03:22:02.259Z,10.06
2023-04-11T03:23:02.265Z,10.06
2023-04-11T03:24:02.328Z,10.05
2023-04-11T03:25:02.212Z,10.05
2023-04-11T03:26:02.257Z,10.03
2023-04-11T03:27:02.236Z,10.02
2023-04-11T03:28:02.179Z,10.02
2023-04-11T03:29:03.089Z,10.03
2023-04-11T03:30:02.162Z,10.03
2023-04-11T03:31:02.195Z,10.02
2023-04-11T03:32:02.112Z,9.99
2023-04-11T03:33:02.191Z,9.91
2023-04-11T03:34:02.117Z,9.87
2023-04-11T03:35:02.092Z,9.82
2023-04-11T03:36:02.108Z,9.82
2023-04-11T03:37:02.054Z,9.80
2023-04-11T03:38:02.034Z,9.81
2023-04-11T03:39:02.026Z,9.80
2023-04-11T03:40:02.036Z,9.80
2023-04-11T03:41:02.149Z,9.77
2023-04-11T03:42:01.995Z,9.77
2023-04-11T03:43:04.420Z,9.77
2023-04-11T03:44:01.944Z,9.77
2023-04-11T03:45:01.960Z,9.73
2023-04-11T03:46:01.955Z,9.74
2023-04-11T03:47:02.011Z,9.73
2023-04-11T03:48:01.955Z,9.77
2023-04-11T03:49:01.897Z,9.76
2023-04-11T03:50:01.909Z,9.76
2023-04-11T03:51:01.888Z,9.72
2023-04-11T03:52:01.876Z,9.70
2023-04-11T03:53:01.839Z,9.69
2023-04-11T03:54:01.818Z,9.64
2023-04-11T03:55:01.834Z,9.59
2023-04-11T03:56:01.838Z,9.56
2023-04-11T03:57:01.853Z,9.54
2023-04-11T03:58:01.787Z,9.51
2023-04-11T03:59:01.756Z,9.49
2023-04-11T04:00:01.761Z,9.51
2023-04-11T04:01:01.747Z,9.49
2023-04-11T04:02:01.811Z,9.45
2023-04-11T04:03:01.841Z,9.39
2023-04-11T04:04:02.127Z,9.37
2023-04-11T04:05:01.757Z,9.37
2023-04-11T04:06:01.680Z,9.36
2023-04-11T04:07:01.662Z,9.36
2023-04-11T04:08:01.673Z,9.37
2023-04-11T04:09:01.620Z,9.39
2023-04-11T04:10:01.652Z,9.40
2023-04-11T04:11:01.607Z,9.39
2023-04-11T04:12:01.602Z,9.42
2023-04-11T04:13:08.699Z,9.44
2023-04-11T04:14:01.581Z,9.45
2023-04-11T04:15:01.538Z,9.48
2023-04-11T04:16:03.441Z,9.49
2023-04-11T04:17:01.508Z,9.51
2023-04-11T04:18:01.547Z,9.52
2023-04-11T04:19:01.482Z,9.55
2023-04-11T04:20:01.464Z,9.55
2023-04-11T04:21:01.485Z,9.54
2023-04-11T04:22:01.431Z,9.55
2023-04-11T04:23:01.426Z,9.54
2023-04-11T04:24:01.402Z,9.58
2023-04-11T04:25:01.407Z,9.55
2023-04-11T04:26:01.439Z,9.56
2023-04-11T04:27:01.387Z,9.58
2023-04-11T04:28:01.373Z,9.58
2023-04-11T04:29:01.357Z,9.58
2023-04-11T04:30:03.388Z,9.54
2023-04-11T04:31:01.350Z,9.54
2023-04-11T04:32:01.503Z,9.49
2023-04-11T04:33:01.332Z,9.51
2023-04-11T04:34:01.317Z,9.48
2023-04-11T04:35:01.308Z,9.45
2023-04-11T04:36:01.418Z,9.48
2023-04-11T04:37:01.246Z,9.48
2023-04-11T04:38:01.226Z,9.51
2023-04-11T04:39:01.216Z,9.51
2023-04-11T04:40:01.203Z,9.52
2023-04-11T04:41:01.367Z,9.52
2023-04-11T04:42:01.180Z,9.52
2023-04-11T04:43:01.163Z,9.52
2023-04-11T04:44:01.177Z,9.51
2023-04-11T04:45:01.142Z,9.51
2023-04-11T04:46:01.185Z,9.51
2023-04-11T04:47:01.161Z,9.51
2023-04-11T04:48:01.112Z,9.51
2023-04-11T04:49:02.280Z,9.51
2023-04-11T04:50:01.080Z,9.54
2023-04-11T04:51:01.077Z,9.54
2023-04-11T04:52:01.031Z,9.54
2023-04-11T04:53:01.039Z,9.55
2023-04-11T04:54:01.024Z,9.56
2023-04-11T04:55:01.005Z,9.55
2023-04-11T04:56:01.002Z,9.55
2023-04-11T04:57:00.976Z,9.56
2023-04-11T04:58:00.957Z,9.59
2023-04-11T04:59:00.960Z,9.62
2023-04-11T05:00:00.942Z,9.58
2023-04-11T05:01:00.984Z,9.54
2023-04-11T05:02:01.012Z,9.51
2023-04-11T05:03:00.985Z,9.47
2023-04-11T05:04:01.535Z,9.45
2023-04-11T05:05:00.868Z,9.47
2023-04-11T05:06:00.861Z,9.44
2023-04-11T05:07:00.860Z,9.40
2023-04-11T05:08:00.831Z,9.40
2023-04-11T05:09:00.833Z,9.40
2023-04-11T05:10:00.800Z,9.39
2023-04-11T05:11:00.794Z,9.40
2023-04-11T05:12:00.763Z,9.42
2023-04-11T05:13:00.774Z,9.44
2023-04-11T05:14:00.737Z,9.44
2023-04-11T05:15:00.727Z,9.44
2023-04-11T05:16:00.761Z,9.44
2023-04-11T05:17:00.717Z,9.44
2023-04-11T05:18:00.760Z,9.44
2023-04-11T05:19:00.676Z,9.40
2023-04-11T05:20:00.659Z,9.37
2023-04-11T05:21:00.656Z,9.37
2023-04-11T05:22:00.657Z,9.39
2023-04-11T05:23:00.628Z,9.39
2023-04-11T05:24:00.615Z,9.40
2023-04-11T05:25:00.600Z,9.42
2023-04-11T05:26:00.581Z,9.40
2023-04-11T05:27:00.630Z,9.44
2023-04-11T05:28:00.551Z,9.42
2023-04-11T05:29:00.553Z,9.42
2023-04-11T05:30:00.578Z,9.42
2023-04-11T05:31:00.529Z,9.44
2023-04-11T05:32:00.529Z,9.44
2023-04-11T05:33:00.553Z,9.42
2023-04-11T05:34:00.495Z,9.40
2023-04-11T05:35:00.460Z,9.36
2023-04-11T05:36:00.483Z,9.33
2023-04-11T05:37:00.448Z,9.29
2023-04-11T05:38:00.423Z,9.24
2023-04-11T05:39:00.429Z,9.26
2023-04-11T05:40:00.502Z,9.27
2023-04-11T05:41:00.409Z,9.30
2023-04-11T05:42:00.374Z,9.31
2023-04-11T05:43:00.365Z,9.34
2023-04-11T05:44:00.364Z,9.39
2023-04-11T05:45:00.343Z,9.40
2023-04-11T05:46:00.321Z,9.42
2023-04-11T05:47:00.430Z,9.45
2023-04-11T05:48:00.338Z,9.48
2023-04-11T05:49:00.272Z,9.51
2023-04-11T05:50:00.261Z,9.56
2023-04-11T05:51:00.257Z,9.59
2023-04-11T05:52:00.239Z,9.64
2023-04-11T05:53:00.222Z,9.64
2023-04-11T05:54:00.192Z,9.66
2023-04-11T05:55:00.189Z,9.69
2023-04-11T05:56:00.188Z,9.70
2023-04-11T05:57:00.186Z,9.70
2023-04-11T05:58:00.189Z,9.70
2023-04-11T05:59:00.140Z,9.73
2023-04-11T06:00:00.142Z,9.73
2023-04-11T06:01:00.134Z,9.72
2023-04-11T06:02:00.165Z,9.72
2023-04-11T06:03:00.428Z,9.73
2023-04-11T06:04:00.520Z,9.73
2023-04-11T06:05:00.080Z,9.73
2023-04-11T06:06:00.084Z,9.73
2023-04-11T06:07:00.043Z,9.73
2023-04-11T06:08:00.021Z,9.74
2023-04-11T06:09:00.003Z,9.76
2023-04-11T06:09:59.989Z,9.76
2023-04-11T06:10:59.964Z,9.70
2023-04-11T06:11:59.975Z,9.73
2023-04-11T06:12:59.958Z,9.72
2023-04-11T06:13:59.936Z,9.69
2023-04-11T06:14:59.920Z,9.70
2023-04-11T06:15:59.946Z,9.72
2023-04-11T06:16:59.915Z,9.73
2023-04-11T06:17:59.939Z,9.77
2023-04-11T06:18:59.877Z,9.76
2023-04-11T06:19:59.872Z,9.77
2023-04-11T06:20:59.861Z,9.73
2023-04-11T06:21:59.860Z,9.74
2023-04-11T06:22:59.802Z,9.77
2023-04-11T06:23:59.791Z,9.76
2023-04-11T06:24:59.809Z,9.76
2023-04-11T06:25:59.779Z,9.74
2023-04-11T06:26:59.789Z,9.74
2023-04-11T06:27:59.746Z,9.77
2023-04-11T06:28:59.722Z,9.80
2023-04-11T06:29:59.726Z,9.81
2023-04-11T06:30:59.763Z,9.84
2023-04-11T06:31:59.735Z,9.84
2023-04-11T06:32:59.700Z,9.84
2023-04-11T06:33:59.669Z,9.87
2023-04-11T06:34:59.649Z,9.91
2023-04-11T06:35:59.696Z,9.90
2023-04-11T06:36:59.663Z,9.91
2023-04-11T06:37:59.637Z,9.94
2023-04-11T06:38:59.629Z,9.91
2023-04-11T06:39:59.589Z,9.90
2023-04-11T06:40:59.568Z,9.88
2023-04-11T06:41:59.581Z,9.85
2023-04-11T06:42:59.552Z,9.82
2023-04-11T06:43:59.811Z,9.84
2023-04-11T06:44:59.553Z,9.85
2023-04-11T06:45:59.521Z,9.87
2023-04-11T06:46:59.558Z,9.88
2023-04-11T06:47:59.544Z,9.90
2023-04-11T06:48:59.466Z,9.94
2023-04-11T06:49:59.473Z,9.95
2023-04-11T06:50:59.444Z,9.99
2023-04-11T06:51:59.436Z,10.02
2023-04-11T06:52:59.406Z,10.03
2023-04-11T06:53:59.412Z,10.05
2023-04-11T06:54:59.395Z,10.03
2023-04-11T06:55:59.373Z,10.06
2023-04-11T06:56:59.356Z,10.05
2023-04-11T06:57:59.344Z,10.06
2023-04-11T06:58:59.333Z,10.06
2023-04-11T06:59:59.329Z,10.07
2023-04-11T07:00:59.327Z,10.10
2023-04-11T07:01:59.435Z,10.10
2023-04-11T07:02:59.550Z,10.10
2023-04-11T07:03:59.797Z,10.09
2023-04-11T07:04:59.266Z,10.07
2023-04-11T07:05:59.328Z,10.02
2023-04-11T07:06:59.239Z,10.03
2023-04-11T07:07:59.212Z,10.05
2023-04-11T07:08:59.196Z,10.07
2023-04-11T07:09:59.192Z,10.07
2023-04-11T07:10:59.163Z,10.09
2023-04-11T07:11:59.173Z,10.12
2023-04-11T07:12:59.134Z,10.13
2023-04-11T07:13:59.130Z,10.13
2023-04-11T07:14:59.117Z,10.10
2023-04-11T07:15:59.112Z,10.07
2023-04-11T07:16:59.096Z,10.07
2023-04-11T07:17:59.105Z,10.07
2023-04-11T07:18:59.065Z,10.09
2023-04-11T07:19:59.049Z,10.06
2023-04-11T07:20:59.102Z,10.07
2023-04-11T07:21:59.052Z,10.07
2023-04-11T07:22:59.008Z,10.09
2023-04-11T07:23:59.007Z,10.10
2023-04-11T07:24:58.989Z,10.10
2023-04-11T07:25:58.980Z,10.15
2023-04-11T07:26:58.995Z,10.18
2023-04-11T07:27:58.939Z,10.20
2023-04-11T07:28:58.926Z,10.21
2023-04-11T07:29:58.933Z,10.25
2023-04-11T07:30:58.934Z,10.27
2023-04-11T07:31:59.001Z,10.28
2023-04-11T07:32:59.002Z,10.28
2023-04-11T07:33:59.079Z,10.28
2023-04-11T07:34:58.854Z,10.33
2023-04-11T07:35:58.864Z,10.33
2023-04-11T07:36:58.842Z,10.33
2023-04-11T07:37:58.815Z,10.33
2023-04-11T07:38:58.800Z,10.34
2023-04-11T07:39:58.798Z,10.34
2023-04-11T07:40:58.770Z,10.34
2023-04-11T07:41:58.809Z,10.34
2023-04-11T07:42:58.737Z,10.33
2023-04-11T07:43:58.812Z,10.33
2023-04-11T07:44:58.764Z,10.30
2023-04-11T07:45:58.782Z,10.28
2023-04-11T07:46:58.714Z,10.28
2023-04-11T07:47:58.725Z,10.30
2023-04-11T07:48:58.676Z,10.31
2023-04-11T07:49:58.648Z,10.33
2023-04-11T07:50:58.632Z,10.31
2023-04-11T07:51:58.650Z,10.36
2023-04-11T07:52:58.616Z,10.39
2023-04-11T07:53:58.646Z,10.38
2023-04-11T07:54:58.579Z,10.39
2023-04-11T07:55:58.564Z,10.42
2023-04-11T07:56:58.566Z,10.45
2023-04-11T07:57:58.550Z,10.42
2023-04-11T07:58:58.604Z,10.45
2023-04-11T07:59:58.519Z,10.41
2023-04-11T08:00:58.492Z,10.39
2023-04-11T08:01:58.581Z,10.38
2023-04-11T08:02:58.828Z,10.33
2023-04-11T08:03:58.764Z,10.28
2023-04-11T08:04:58.663Z,10.28
2023-04-11T08:05:58.432Z,10.30
2023-04-11T08:06:58.454Z,10.30
2023-04-11T08:07:58.428Z,10.31
2023-04-11T08:08:58.441Z,10.34
2023-04-11T08:09:58.426Z,10.38
2023-04-11T08:10:58.395Z,10.39
2023-04-11T08:11:58.364Z,10.38
2023-04-11T08:12:58.337Z,10.42
2023-04-11T08:13:58.619Z,10.45
2023-04-11T08:14:58.310Z,10.45
2023-04-11T08:15:58.306Z,10.46
2023-04-11T08:16:58.392Z,10.49
2023-04-11T08:17:58.281Z,10.51
2023-04-11T08:18:58.264Z,10.55
2023-04-11T08:19:58.252Z,10.55
2023-04-11T08:20:58.227Z,10.58
2023-04-11T08:21:58.297Z,10.58
2023-04-11T08:22:58.254Z,10.59
2023-04-11T08:23:58.452Z,10.61
2023-04-11T08:24:58.441Z,10.61
2023-04-11T08:25:58.176Z,10.67
2023-04-11T08:26:58.307Z,10.65
2023-04-11T08:27:58.143Z,10.64
2023-04-11T08:28:58.129Z,10.62
2023-04-11T08:29:58.124Z,10.62
2023-04-11T08:30:58.107Z,10.64
2023-04-11T08:31:58.088Z,10.68
2023-04-11T08:32:58.108Z,10.71
2023-04-11T08:34:00.754Z,10.75
2023-04-11T08:34:58.044Z,10.69
2023-04-11T08:35:58.063Z,10.71
2023-04-11T08:36:58.037Z,10.76
2023-04-11T08:37:58.025Z,10.77
2023-04-11T08:38:58.083Z,10.87
2023-04-11T08:39:57.992Z,10.90
2023-04-11T08:40:57.968Z,10.90
2023-04-11T08:41:57.989Z,10.90
2023-04-11T08:42:57.945Z,10.92
2023-04-11T08:43:58.326Z,10.92
2023-04-11T08:44:57.924Z,10.98
2023-04-11T08:45:57.921Z,11.02
2023-04-11T08:46:57.904Z,11.05
2023-04-11T08:47:57.894Z,11.12
2023-04-11T08:48:57.865Z,11.20
2023-04-11T08:49:57.854Z,11.26
2023-04-11T08:50:57.842Z,11.34
2023-04-11T08:51:57.971Z,11.38
2023-04-11T08:52:57.805Z,11.45
2023-04-11T08:53:58.311Z,11.48
2023-04-11T08:54:57.786Z,11.51
2023-04-11T08:55:57.760Z,11.56
2023-04-11T08:56:57.777Z,11.63
2023-04-11T08:57:57.742Z,11.63
2023-04-11T08:58:57.732Z,11.67
2023-04-11T08:59:57.707Z,11.67
2023-04-11T09:00:57.754Z,11.68
2023-04-11T09:01:57.774Z,11.70
2023-04-11T09:02:57.885Z,11.65
2023-04-11T09:03:57.924Z,11.63
2023-04-11T09:04:57.924Z,11.70
2023-04-11T09:05:57.640Z,11.76
2023-04-11T09:07:00.223Z,11.78
2023-04-11T09:07:57.628Z,11.86
2023-04-11T09:08:57.595Z,11.93
2023-04-11T09:09:57.615Z,11.99
2023-04-11T09:10:57.574Z,11.89
2023-04-11T09:11:57.558Z,11.78
2023-04-11T09:12:57.569Z,11.77
2023-04-11T09:13:57.678Z,11.77
2023-04-11T09:14:57.548Z,11.81
2023-04-11T09:15:57.537Z,11.88
2023-04-11T09:16:57.498Z,11.89
2023-04-11T09:18:00.369Z,11.93
2023-04-11T09:18:57.696Z,12.02
2023-04-11T09:19:57.449Z,12.07
2023-04-11T09:20:57.445Z,12.03
2023-04-11T09:21:57.423Z,12.03
2023-04-11T09:22:57.426Z,12.02
2023-04-11T09:23:57.487Z,12.08
2023-04-11T09:24:57.377Z,12.10
2023-04-11T09:25:57.368Z,12.14
2023-04-11T09:26:57.345Z,12.17
2023-04-11T09:27:57.358Z,12.18
2023-04-11T09:28:57.507Z,12.14
2023-04-11T09:29:57.319Z,12.12
2023-04-11T09:30:57.318Z,12.12
2023-04-11T09:31:57.292Z,12.10
2023-04-11T09:32:57.353Z,12.07
2023-04-11T09:33:57.589Z,12.11
2023-04-11T09:34:57.247Z,12.18
2023-04-11T09:35:57.258Z,12.18
2023-04-11T09:36:57.220Z,12.28
2023-04-11T09:37:57.224Z,12.36
2023-04-11T09:38:57.302Z,12.37
2023-04-11T09:39:57.197Z,12.39
2023-04-11T09:40:57.160Z,12.37
2023-04-11T09:41:57.158Z,12.35
2023-04-11T09:42:57.159Z,12.23
2023-04-11T09:43:57.393Z,12.18
2023-04-11T09:44:57.112Z,12.21
2023-04-11T09:45:57.101Z,12.18
2023-04-11T09:46:57.312Z,12.10
2023-04-11T09:47:57.122Z,12.05
2023-04-11T09:48:57.139Z,12.12
2023-04-11T09:49:57.056Z,12.14
2023-04-11T09:51:58.020Z,12.02
2023-04-11T09:52:59.105Z,12.02
2023-04-11T09:53:40.337Z,12.08
2023-04-11T09:53:57.271Z,12.08
2023-04-11T09:54:56.984Z,12.14
2023-04-11T09:55:56.971Z,12.20
2023-04-11T09:56:56.953Z,12.29
2023-04-11T09:57:56.959Z,12.40
2023-04-11T09:58:57.140Z,12.50
2023-04-11T09:59:56.908Z,12.54
2023-04-11T10:00:56.899Z,12.57
2023-04-11T10:01:57.026Z,12.61
2023-04-11T10:02:57.106Z,12.63
2023-04-11T10:03:57.814Z,12.65
2023-04-11T10:04:56.948Z,12.72
2023-04-11T10:05:56.829Z,12.78
2023-04-11T10:06:56.814Z,12.84
2023-04-11T10:07:56.827Z,12.88
2023-04-11T10:08:57.006Z,12.94
2023-04-11T10:09:56.776Z,12.98
2023-04-11T10:10:56.801Z,13.05
2023-04-11T10:11:56.746Z,13.08
2023-04-11T10:12:56.772Z,13.16
2023-04-11T10:13:56.956Z,13.20
2023-04-11T10:15:03.816Z,13.20
2023-04-11T10:15:56.747Z,13.16
2023-04-11T10:16:56.718Z,13.16
2023-04-11T10:17:56.719Z,12.99
2023-04-11T10:18:56.665Z,13.02
2023-04-11T10:19:57.076Z,12.94
2023-04-11T10:20:56.646Z,12.90
2023-04-11T10:21:56.626Z,12.88
2023-04-11T10:22:56.620Z,12.94
2023-04-11T10:23:56.794Z,12.98
2023-04-11T10:24:56.575Z,13.03
2023-04-11T10:25:56.615Z,13.01
2023-04-11T10:26:56.588Z,12.98
2023-04-11T10:27:56.574Z,12.93
2023-04-11T10:28:56.688Z,12.87
2023-04-11T10:29:56.520Z,12.83
2023-04-11T10:30:56.498Z,12.76
2023-04-11T10:31:56.610Z,12.70
2023-04-11T10:32:56.488Z,12.62
2023-04-11T10:33:56.646Z,12.55
2023-04-11T10:34:58.135Z,12.51
2023-04-11T10:35:58.023Z,12.51
2023-04-11T10:36:56.422Z,12.37
2023-04-11T10:37:56.459Z,12.25
2023-04-11T10:38:56.437Z,12.14
2023-04-11T10:39:56.398Z,12.15
2023-04-11T10:40:56.362Z,12.25
2023-04-11T10:41:56.359Z,12.35
2023-04-11T10:42:56.341Z,12.44
2023-04-11T10:43:56.597Z,12.44
2023-04-11T10:44:56.314Z,12.35
2023-04-11T10:45:56.300Z,12.33
2023-04-11T10:46:56.342Z,12.35
2023-04-11T10:47:56.391Z,12.37
2023-04-11T10:48:56.291Z,12.35
2023-04-11T10:49:56.247Z,12.35
2023-04-11T10:50:56.254Z,12.30
2023-04-11T10:51:56.219Z,12.30
2023-04-11T10:52:56.201Z,12.28
2023-04-11T10:53:56.205Z,12.25
2023-04-11T10:54:56.196Z,12.20
2023-04-11T10:55:56.160Z,12.15
2023-04-11T10:56:56.155Z,12.10
2023-04-11T10:57:56.146Z,12.03
2023-04-11T10:58:56.180Z,12.03
2023-04-11T10:59:56.133Z,12.07
2023-04-11T11:00:56.145Z,12.10
2023-04-11T11:01:56.197Z,12.10
2023-04-11T11:02:56.202Z,12.18
2023-04-11T11:03:56.317Z,12.21
2023-04-11T11:04:56.085Z,12.30
2023-04-11T11:05:56.031Z,12.40
2023-04-11T11:06:57.399Z,12.51
2023-04-11T11:07:56.035Z,12.62
2023-04-11T11:08:56.019Z,12.75
2023-04-11T11:09:55.981Z,12.84
2023-04-11T11:10:56.795Z,12.94
2023-04-11T11:11:55.964Z,12.99
2023-04-11T11:12:55.950Z,13.12
2023-04-11T11:13:56.631Z,13.19
2023-04-11T11:14:55.911Z,13.21
2023-04-11T11:15:55.875Z,13.21
2023-04-11T11:16:55.921Z,13.20
2023-04-11T11:17:55.943Z,13.12
2023-04-11T11:18:55.891Z,13.19
2023-04-11T11:19:55.868Z,13.11
2023-04-11T11:20:55.831Z,13.13
2023-04-11T11:21:55.822Z,13.23
2023-04-11T11:22:55.787Z,13.31
2023-04-11T11:23:56.031Z,13.45
2023-04-11T11:24:55.771Z,13.55
2023-04-11T11:25:55.767Z,13.60
2023-04-11T11:26:55.750Z,13.67
2023-04-11T11:27:55.726Z,13.78
2023-04-11T11:28:55.862Z,13.89
2023-04-11T11:29:55.747Z,13.97
2023-04-11T11:30:55.834Z,14.03
2023-04-11T11:31:55.731Z,14.04
2023-04-11T11:32:55.685Z,14.08
2023-04-11T11:33:58.264Z,14.16
2023-04-11T11:34:56.680Z,14.15
2023-04-11T11:35:55.637Z,14.25
2023-04-11T11:36:55.657Z,14.41
2023-04-11T11:37:55.594Z,14.43
2023-04-11T11:38:55.724Z,14.43
2023-04-11T11:39:55.586Z,14.40
2023-04-11T11:40:55.559Z,14.26
2023-04-11T11:41:55.531Z,14.28
2023-04-11T11:42:55.524Z,14.37
2023-04-11T11:43:55.721Z,14.44
2023-04-11T11:44:55.508Z,14.43
2023-04-11T11:45:55.600Z,14.49
2023-04-11T11:46:55.480Z,14.55
2023-04-11T11:47:55.639Z,14.55
2023-04-11T11:48:55.861Z,14.59
2023-04-11T11:49:55.559Z,14.70
2023-04-11T11:50:55.419Z,14.71
2023-04-11T11:51:55.393Z,14.71
2023-04-11T11:52:55.418Z,14.74
2023-04-11T11:53:55.372Z,14.74
2023-04-11T11:54:55.376Z,14.85
2023-04-11T11:55:55.348Z,14.89
2023-04-11T11:56:55.339Z,14.85
2023-04-11T11:57:55.333Z,14.68
2023-04-11T11:58:55.692Z,14.52
2023-04-11T11:59:55.312Z,14.40
2023-04-11T12:00:55.297Z,14.19
2023-04-11T12:01:55.325Z,14.15
2023-04-11T12:02:55.448Z,14.04
2023-04-11T12:03:55.457Z,13.97
2023-04-11T12:04:55.557Z,13.89
2023-04-11T12:05:55.214Z,13.82
2023-04-11T12:06:55.209Z,13.64
2023-04-11T12:07:55.188Z,13.58
2023-04-11T12:08:55.176Z,13.58
2023-04-11T12:09:55.174Z,13.57
2023-04-11T12:10:55.158Z,13.52
2023-04-11T12:11:55.135Z,13.52
2023-04-11T12:12:55.117Z,13.68
2023-04-11T12:13:55.575Z,13.64
2023-04-11T12:14:55.115Z,13.60
2023-04-11T12:15:55.171Z,13.58
2023-04-11T12:16:55.106Z,13.57
2023-04-11T12:17:55.207Z,13.54
2023-04-11T12:18:55.037Z,13.47
2023-04-11T12:19:55.068Z,13.50
2023-04-11T12:20:55.026Z,13.70
2023-04-11T12:21:54.999Z,13.82
2023-04-11T12:22:55.430Z,13.89
2023-04-11T12:23:55.289Z,13.86
2023-04-11T12:24:54.988Z,13.79
2023-04-11T12:25:54.947Z,13.70
2023-04-11T12:27:06.468Z,13.71
2023-04-11T12:27:55.928Z,13.61
2023-04-11T12:28:55.100Z,13.64
2023-04-11T12:29:54.903Z,13.75
2023-04-11T12:30:54.921Z,13.91
2023-04-11T12:31:54.965Z,14.04
2023-04-11T12:32:54.856Z,14.16
2023-04-11T12:33:55.018Z,14.30
2023-04-11T12:34:54.851Z,14.44
2023-04-11T12:35:54.832Z,14.51
2023-04-11T12:36:54.836Z,14.52
2023-04-11T12:37:54.778Z,14.58
2023-04-11T12:38:55.038Z,14.62
2023-04-11T12:39:54.781Z,14.67
2023-04-11T12:41:13.978Z,14.73
2023-04-11T12:41:55.740Z,14.74
2023-04-11T12:42:57.245Z,14.81
2023-04-11T12:43:54.990Z,14.90
2023-04-11T12:44:54.737Z,14.99
2023-04-11T12:45:54.685Z,15.07
2023-04-11T12:46:54.747Z,15.22
2023-04-11T12:47:54.739Z,15.30
2023-04-11T12:48:54.838Z,15.43
2023-04-11T12:49:54.626Z,15.55
2023-04-11T12:50:54.623Z,15.67
2023-04-11T12:51:54.598Z,15.83
2023-04-11T12:52:56.251Z,15.94
2023-04-11T12:53:54.571Z,15.81
2023-04-11T12:54:54.561Z,15.80
2023-04-11T12:55:54.593Z,15.81
2023-04-11T12:56:54.532Z,15.84
2023-04-11T12:57:54.519Z,15.88
2023-04-11T12:58:54.658Z,16.00
2023-04-11T12:59:54.485Z,16.00